sensor_id;sensor_type;location;lat;lon;timestamp;P1;durP1;ratioP1;P2;durP2;ratioP2
20073;SDS011;10197;54.282;10.078;2024-01-10T00:00:22;34.30;;;20.05;;
20073;SDS011;10197;54.282;10.078;2024-01-10T00:02:49;37.45;;;20.75;;
20073;SDS011;10197;54.282;10.078;2024-01-10T00:05:16;43.15;;;22.27;;
20073;SDS011;10197;54.282;10.078;2024-01-10T00:07:43;38.95;;;21.65;;
20073;SDS011;10197;54.282;10.078;2024-01-10T00:10:09;40.95;;;21.75;;
20073;SDS011;10197;54.282;10.078;2024-01-10T00:12:36;38.03;;;21.70;;
20073;SDS011;10197;54.282;10.078;2024-01-10T00:15:04;36.47;;;21.08;;
20073;SDS011;10197;54.282;10.078;2024-01-10T00:17:32;42.20;;;22.67;;
20073;SDS011;10197;54.282;10.078;2024-01-10T00:19:59;43.80;;;23.10;;
20073;SDS011;10197;54.282;10.078;2024-01-10T00:22:26;41.97;;;22.70;;
20073;SDS011;10197;54.282;10.078;2024-01-10T00:24:53;36.90;;;20.38;;
20073;SDS011;10197;54.282;10.078;2024-01-10T00:27:20;37.30;;;20.52;;
20073;SDS011;10197;54.282;10.078;2024-01-10T00:29:47;33.10;;;18.73;;
20073;SDS011;10197;54.282;10.078;2024-01-10T00:32:13;32.22;;;17.02;;
20073;SDS011;10197;54.282;10.078;2024-01-10T00:34:41;33.85;;;16.27;;
20073;SDS011;10197;54.282;10.078;2024-01-10T00:37:08;23.25;;;14.40;;
20073;SDS011;10197;54.282;10.078;2024-01-10T00:39:35;22.83;;;13.90;;
20073;SDS011;10197;54.282;10.078;2024-01-10T00:42:01;21.60;;;12.90;;
20073;SDS011;10197;54.282;10.078;2024-01-10T00:44:28;20.90;;;12.60;;
20073;SDS011;10197;54.282;10.078;2024-01-10T00:46:55;28.75;;;12.32;;
20073;SDS011;10197;54.282;10.078;2024-01-10T00:49:22;20.42;;;12.05;;
20073;SDS011;10197;54.282;10.078;2024-01-10T00:51:50;19.50;;;11.38;;
20073;SDS011;10197;54.282;10.078;2024-01-10T00:54:16;17.67;;;11.05;;
20073;SDS011;10197;54.282;10.078;2024-01-10T00:56:43;19.15;;;11.05;;
20073;SDS011;10197;54.282;10.078;2024-01-10T00:59:10;16.95;;;10.45;;
20073;SDS011;10197;54.282;10.078;2024-01-10T01:01:38;19.77;;;11.25;;
20073;SDS011;10197;54.282;10.078;2024-01-10T01:04:05;16.52;;;9.95;;
20073;SDS011;10197;54.282;10.078;2024-01-10T01:06:31;17.30;;;9.68;;
20073;SDS011;10197;54.282;10.078;2024-01-10T01:08:59;15.05;;;9.00;;
20073;SDS011;10197;54.282;10.078;2024-01-10T01:11:26;15.07;;;9.75;;
20073;SDS011;10197;54.282;10.078;2024-01-10T01:13:53;12.05;;;7.72;;
20073;SDS011;10197;54.282;10.078;2024-01-10T01:16:20;13.02;;;8.93;;
20073;SDS011;10197;54.282;10.078;2024-01-10T01:18:46;17.85;;;10.05;;
20073;SDS011;10197;54.282;10.078;2024-01-10T01:21:13;18.40;;;9.90;;
20073;SDS011;10197;54.282;10.078;2024-01-10T01:23:40;16.75;;;10.13;;
20073;SDS011;10197;54.282;10.078;2024-01-10T01:26:08;17.40;;;10.10;;
20073;SDS011;10197;54.282;10.078;2024-01-10T01:28:35;19.60;;;9.98;;
20073;SDS011;10197;54.282;10.078;2024-01-10T01:31:01;16.67;;;9.90;;
20073;SDS011;10197;54.282;10.078;2024-01-10T01:33:29;20.65;;;9.85;;
20073;SDS011;10197;54.282;10.078;2024-01-10T01:35:56;15.65;;;9.52;;
20073;SDS011;10197;54.282;10.078;2024-01-10T01:38:24;22.52;;;9.70;;
20073;SDS011;10197;54.282;10.078;2024-01-10T01:40:50;23.05;;;9.68;;
20073;SDS011;10197;54.282;10.078;2024-01-10T01:43:20;16.75;;;10.13;;
20073;SDS011;10197;54.282;10.078;2024-01-10T01:45:48;14.85;;;9.55;;
20073;SDS011;10197;54.282;10.078;2024-01-10T01:48:17;19.58;;;10.77;;
20073;SDS011;10197;54.282;10.078;2024-01-10T01:50:45;16.42;;;10.27;;
20073;SDS011;10197;54.282;10.078;2024-01-10T01:53:12;22.38;;;10.25;;
20073;SDS011;10197;54.282;10.078;2024-01-10T01:55:39;23.35;;;10.68;;
20073;SDS011;10197;54.282;10.078;2024-01-10T01:58:06;17.27;;;9.93;;
20073;SDS011;10197;54.282;10.078;2024-01-10T02:00:34;16.33;;;10.13;;
20073;SDS011;10197;54.282;10.078;2024-01-10T02:03:02;17.45;;;9.57;;
20073;SDS011;10197;54.282;10.078;2024-01-10T02:05:29;18.08;;;10.60;;
20073;SDS011;10197;54.282;10.078;2024-01-10T02:07:58;17.05;;;10.02;;
20073;SDS011;10197;54.282;10.078;2024-01-10T02:10:24;17.58;;;9.98;;
20073;SDS011;10197;54.282;10.078;2024-01-10T02:12:51;16.70;;;10.70;;
20073;SDS011;10197;54.282;10.078;2024-01-10T02:15:18;12.73;;;8.77;;
20073;SDS011;10197;54.282;10.078;2024-01-10T02:17:46;18.60;;;10.80;;
20073;SDS011;10197;54.282;10.078;2024-01-10T02:20:13;21.95;;;11.15;;
20073;SDS011;10197;54.282;10.078;2024-01-10T02:22:42;18.65;;;9.73;;
20073;SDS011;10197;54.282;10.078;2024-01-10T02:25:10;16.92;;;10.45;;
20073;SDS011;10197;54.282;10.078;2024-01-10T02:27:39;19.05;;;10.27;;
20073;SDS011;10197;54.282;10.078;2024-01-10T02:30:07;21.33;;;10.82;;
20073;SDS011;10197;54.282;10.078;2024-01-10T02:32:36;17.95;;;10.88;;
20073;SDS011;10197;54.282;10.078;2024-01-10T02:35:03;21.13;;;11.18;;
20073;SDS011;10197;54.282;10.078;2024-01-10T02:37:30;22.27;;;12.10;;
20073;SDS011;10197;54.282;10.078;2024-01-10T02:39:57;25.30;;;11.55;;
20073;SDS011;10197;54.282;10.078;2024-01-10T02:42:25;19.50;;;11.75;;
20073;SDS011;10197;54.282;10.078;2024-01-10T02:44:52;34.70;;;13.07;;
20073;SDS011;10197;54.282;10.078;2024-01-10T02:47:19;28.15;;;12.45;;
20073;SDS011;10197;54.282;10.078;2024-01-10T02:49:45;32.35;;;13.18;;
20073;SDS011;10197;54.282;10.078;2024-01-10T02:52:12;31.92;;;13.20;;
20073;SDS011;10197;54.282;10.078;2024-01-10T02:54:39;26.05;;;12.90;;
20073;SDS011;10197;54.282;10.078;2024-01-10T02:57:06;29.92;;;12.95;;
20073;SDS011;10197;54.282;10.078;2024-01-10T02:59:34;38.60;;;14.05;;
20073;SDS011;10197;54.282;10.078;2024-01-10T03:02:01;38.88;;;13.45;;
20073;SDS011;10197;54.282;10.078;2024-01-10T03:04:28;25.50;;;13.13;;
20073;SDS011;10197;54.282;10.078;2024-01-10T03:06:55;26.42;;;14.15;;
20073;SDS011;10197;54.282;10.078;2024-01-10T03:09:22;29.73;;;13.45;;
20073;SDS011;10197;54.282;10.078;2024-01-10T03:11:49;28.73;;;14.27;;
20073;SDS011;10197;54.282;10.078;2024-01-10T03:14:15;40.28;;;15.27;;
20073;SDS011;10197;54.282;10.078;2024-01-10T03:16:43;26.60;;;14.00;;
20073;SDS011;10197;54.282;10.078;2024-01-10T03:19:11;27.17;;;13.30;;
20073;SDS011;10197;54.282;10.078;2024-01-10T03:21:38;33.92;;;14.13;;
20073;SDS011;10197;54.282;10.078;2024-01-10T03:24:05;26.27;;;13.50;;
20073;SDS011;10197;54.282;10.078;2024-01-10T03:26:32;33.17;;;13.13;;
20073;SDS011;10197;54.282;10.078;2024-01-10T03:28:58;26.50;;;14.52;;
20073;SDS011;10197;54.282;10.078;2024-01-10T03:31:25;30.08;;;15.05;;
20073;SDS011;10197;54.282;10.078;2024-01-10T03:33:54;41.95;;;15.20;;
20073;SDS011;10197;54.282;10.078;2024-01-10T03:36:21;29.52;;;15.93;;
20073;SDS011;10197;54.282;10.078;2024-01-10T03:38:47;31.10;;;15.55;;
20073;SDS011;10197;54.282;10.078;2024-01-10T03:41:14;29.00;;;16.42;;
20073;SDS011;10197;54.282;10.078;2024-01-10T03:43:41;31.27;;;15.82;;
20073;SDS011;10197;54.282;10.078;2024-01-10T03:46:08;35.05;;;16.42;;
20073;SDS011;10197;54.282;10.078;2024-01-10T03:48:35;30.58;;;15.80;;
20073;SDS011;10197;54.282;10.078;2024-01-10T03:51:03;33.55;;;17.02;;
20073;SDS011;10197;54.282;10.078;2024-01-10T03:53:30;32.47;;;15.55;;
20073;SDS011;10197;54.282;10.078;2024-01-10T03:55:57;34.15;;;16.67;;
20073;SDS011;10197;54.282;10.078;2024-01-10T03:58:24;32.63;;;16.00;;
20073;SDS011;10197;54.282;10.078;2024-01-10T04:00:51;33.63;;;16.90;;
20073;SDS011;10197;54.282;10.078;2024-01-10T04:03:18;35.67;;;16.23;;
20073;SDS011;10197;54.282;10.078;2024-01-10T04:05:46;39.45;;;15.50;;
20073;SDS011;10197;54.282;10.078;2024-01-10T04:08:14;30.10;;;16.52;;
20073;SDS011;10197;54.282;10.078;2024-01-10T04:10:41;29.25;;;15.65;;
20073;SDS011;10197;54.282;10.078;2024-01-10T04:13:08;29.80;;;16.40;;
20073;SDS011;10197;54.282;10.078;2024-01-10T04:15:35;32.00;;;16.55;;
20073;SDS011;10197;54.282;10.078;2024-01-10T04:18:01;34.45;;;16.30;;
20073;SDS011;10197;54.282;10.078;2024-01-10T04:20:28;31.67;;;16.70;;
20073;SDS011;10197;54.282;10.078;2024-01-10T04:22:55;27.90;;;15.35;;
20073;SDS011;10197;54.282;10.078;2024-01-10T04:25:23;28.23;;;16.33;;
20073;SDS011;10197;54.282;10.078;2024-01-10T04:27:49;29.92;;;16.65;;
20073;SDS011;10197;54.282;10.078;2024-01-10T04:30:16;29.70;;;15.48;;
20073;SDS011;10197;54.282;10.078;2024-01-10T04:32:43;28.10;;;16.27;;
20073;SDS011;10197;54.282;10.078;2024-01-10T04:35:10;31.42;;;16.20;;
20073;SDS011;10197;54.282;10.078;2024-01-10T04:37:36;31.25;;;16.13;;
20073;SDS011;10197;54.282;10.078;2024-01-10T04:40:03;33.80;;;17.27;;
20073;SDS011;10197;54.282;10.078;2024-01-10T04:42:32;28.90;;;15.90;;
20073;SDS011;10197;54.282;10.078;2024-01-10T04:44:59;27.55;;;16.13;;
20073;SDS011;10197;54.282;10.078;2024-01-10T04:47:26;32.05;;;16.85;;
20073;SDS011;10197;54.282;10.078;2024-01-10T04:49:52;30.50;;;16.08;;
20073;SDS011;10197;54.282;10.078;2024-01-10T04:52:19;31.20;;;15.48;;
20073;SDS011;10197;54.282;10.078;2024-01-10T04:54:46;33.60;;;17.23;;
20073;SDS011;10197;54.282;10.078;2024-01-10T04:57:12;34.35;;;17.52;;
20073;SDS011;10197;54.282;10.078;2024-01-10T04:59:41;32.20;;;16.92;;
20073;SDS011;10197;54.282;10.078;2024-01-10T05:02:07;33.42;;;17.85;;
20073;SDS011;10197;54.282;10.078;2024-01-10T05:04:34;32.53;;;16.77;;
20073;SDS011;10197;54.282;10.078;2024-01-10T05:07:01;34.15;;;17.50;;
20073;SDS011;10197;54.282;10.078;2024-01-10T05:09:27;31.70;;;17.30;;
20073;SDS011;10197;54.282;10.078;2024-01-10T05:11:54;37.22;;;17.88;;
20073;SDS011;10197;54.282;10.078;2024-01-10T05:14:21;35.72;;;17.98;;
20073;SDS011;10197;54.282;10.078;2024-01-10T05:16:50;32.63;;;16.33;;
20073;SDS011;10197;54.282;10.078;2024-01-10T05:19:18;36.10;;;17.02;;
20073;SDS011;10197;54.282;10.078;2024-01-10T05:21:45;35.10;;;16.50;;
20073;SDS011;10197;54.282;10.078;2024-01-10T05:24:12;33.80;;;17.23;;
20073;SDS011;10197;54.282;10.078;2024-01-10T05:26:38;33.88;;;16.63;;
20073;SDS011;10197;54.282;10.078;2024-01-10T05:29:05;31.25;;;17.25;;
20073;SDS011;10197;54.282;10.078;2024-01-10T05:31:32;33.92;;;17.23;;
20073;SDS011;10197;54.282;10.078;2024-01-10T05:34:00;34.47;;;17.08;;
20073;SDS011;10197;54.282;10.078;2024-01-10T05:36:27;33.80;;;17.33;;
20073;SDS011;10197;54.282;10.078;2024-01-10T05:38:54;32.80;;;17.40;;
20073;SDS011;10197;54.282;10.078;2024-01-10T05:41:21;31.25;;;17.35;;
20073;SDS011;10197;54.282;10.078;2024-01-10T05:43:48;32.38;;;16.38;;
20073;SDS011;10197;54.282;10.078;2024-01-10T05:46:15;33.95;;;17.05;;
20073;SDS011;10197;54.282;10.078;2024-01-10T05:48:42;35.05;;;18.83;;
20073;SDS011;10197;54.282;10.078;2024-01-10T05:51:10;33.75;;;17.38;;
20073;SDS011;10197;54.282;10.078;2024-01-10T05:53:37;37.08;;;17.98;;
20073;SDS011;10197;54.282;10.078;2024-01-10T05:56:05;32.92;;;17.65;;
20073;SDS011;10197;54.282;10.078;2024-01-10T05:58:32;35.83;;;17.60;;
20073;SDS011;10197;54.282;10.078;2024-01-10T06:00:59;34.00;;;17.27;;
20073;SDS011;10197;54.282;10.078;2024-01-10T06:03:26;35.42;;;19.38;;
20073;SDS011;10197;54.282;10.078;2024-01-10T06:05:52;36.45;;;17.80;;
20073;SDS011;10197;54.282;10.078;2024-01-10T06:08:21;34.88;;;17.92;;
20073;SDS011;10197;54.282;10.078;2024-01-10T06:10:51;39.25;;;18.92;;
20073;SDS011;10197;54.282;10.078;2024-01-10T06:13:17;38.88;;;17.15;;
20073;SDS011;10197;54.282;10.078;2024-01-10T06:15:44;31.98;;;15.85;;
20073;SDS011;10197;54.282;10.078;2024-01-10T06:18:11;29.52;;;14.65;;
20073;SDS011;10197;54.282;10.078;2024-01-10T06:20:38;25.25;;;14.35;;
20073;SDS011;10197;54.282;10.078;2024-01-10T06:23:04;32.35;;;14.40;;
20073;SDS011;10197;54.282;10.078;2024-01-10T06:25:32;22.95;;;12.30;;
20073;SDS011;10197;54.282;10.078;2024-01-10T06:27:59;23.75;;;11.48;;
20073;SDS011;10197;54.282;10.078;2024-01-10T06:30:26;20.20;;;11.20;;
20073;SDS011;10197;54.282;10.078;2024-01-10T06:32:53;24.02;;;11.75;;
20073;SDS011;10197;54.282;10.078;2024-01-10T06:35:20;24.73;;;12.05;;
20073;SDS011;10197;54.282;10.078;2024-01-10T06:37:47;20.13;;;10.82;;
20073;SDS011;10197;54.282;10.078;2024-01-10T06:40:14;18.60;;;10.65;;
20073;SDS011;10197;54.282;10.078;2024-01-10T06:42:43;19.45;;;10.43;;
20073;SDS011;10197;54.282;10.078;2024-01-10T06:45:10;23.70;;;11.95;;
20073;SDS011;10197;54.282;10.078;2024-01-10T06:47:37;21.00;;;10.82;;
20073;SDS011;10197;54.282;10.078;2024-01-10T06:50:04;21.92;;;11.30;;
20073;SDS011;10197;54.282;10.078;2024-01-10T06:52:34;19.63;;;10.68;;
20073;SDS011;10197;54.282;10.078;2024-01-10T06:55:00;21.05;;;12.05;;
20073;SDS011;10197;54.282;10.078;2024-01-10T06:57:29;21.90;;;10.55;;
20073;SDS011;10197;54.282;10.078;2024-01-10T06:59:57;18.83;;;10.45;;
20073;SDS011;10197;54.282;10.078;2024-01-10T07:02:24;22.10;;;12.07;;
20073;SDS011;10197;54.282;10.078;2024-01-10T07:04:51;18.55;;;10.27;;
20073;SDS011;10197;54.282;10.078;2024-01-10T07:07:18;19.27;;;10.10;;
20073;SDS011;10197;54.282;10.078;2024-01-10T07:09:44;21.60;;;11.07;;
20073;SDS011;10197;54.282;10.078;2024-01-10T07:12:11;18.35;;;10.55;;
20073;SDS011;10197;54.282;10.078;2024-01-10T07:14:38;24.00;;;12.20;;
20073;SDS011;10197;54.282;10.078;2024-01-10T07:17:06;20.80;;;11.15;;
20073;SDS011;10197;54.282;10.078;2024-01-10T07:19:33;21.23;;;10.82;;
20073;SDS011;10197;54.282;10.078;2024-01-10T07:22:00;23.27;;;11.68;;
20073;SDS011;10197;54.282;10.078;2024-01-10T07:24:26;24.08;;;12.60;;
20073;SDS011;10197;54.282;10.078;2024-01-10T07:26:53;21.65;;;11.45;;
20073;SDS011;10197;54.282;10.078;2024-01-10T07:29:22;27.15;;;13.68;;
20073;SDS011;10197;54.282;10.078;2024-01-10T07:31:48;22.45;;;11.88;;
20073;SDS011;10197;54.282;10.078;2024-01-10T07:34:19;29.05;;;15.07;;
20073;SDS011;10197;54.282;10.078;2024-01-10T07:36:46;24.38;;;14.32;;
20073;SDS011;10197;54.282;10.078;2024-01-10T07:39:13;25.70;;;13.30;;
20073;SDS011;10197;54.282;10.078;2024-01-10T07:41:41;18.67;;;11.00;;
20073;SDS011;10197;54.282;10.078;2024-01-10T07:44:07;18.40;;;9.75;;
20073;SDS011;10197;54.282;10.078;2024-01-10T07:46:34;19.52;;;10.60;;
20073;SDS011;10197;54.282;10.078;2024-01-10T07:49:02;18.13;;;10.32;;
20073;SDS011;10197;54.282;10.078;2024-01-10T07:51:31;18.75;;;10.55;;
20073;SDS011;10197;54.282;10.078;2024-01-10T07:53:58;17.73;;;10.43;;
20073;SDS011;10197;54.282;10.078;2024-01-10T07:56:25;20.92;;;11.15;;
20073;SDS011;10197;54.282;10.078;2024-01-10T07:58:51;20.45;;;10.38;;
20073;SDS011;10197;54.282;10.078;2024-01-10T08:01:18;20.92;;;10.65;;
20073;SDS011;10197;54.282;10.078;2024-01-10T08:03:46;21.83;;;11.85;;
20073;SDS011;10197;54.282;10.078;2024-01-10T08:06:13;30.38;;;15.35;;
20073;SDS011;10197;54.282;10.078;2024-01-10T08:08:41;25.70;;;13.00;;
20073;SDS011;10197;54.282;10.078;2024-01-10T08:11:08;26.48;;;14.57;;
20073;SDS011;10197;54.282;10.078;2024-01-10T08:13:35;28.20;;;15.40;;
20073;SDS011;10197;54.282;10.078;2024-01-10T08:16:02;27.65;;;15.65;;
20073;SDS011;10197;54.282;10.078;2024-01-10T08:18:29;23.73;;;12.98;;
20073;SDS011;10197;54.282;10.078;2024-01-10T08:20:56;19.83;;;9.95;;
20073;SDS011;10197;54.282;10.078;2024-01-10T08:23:23;20.88;;;10.93;;
20073;SDS011;10197;54.282;10.078;2024-01-10T08:25:51;24.80;;;14.13;;
20073;SDS011;10197;54.282;10.078;2024-01-10T08:28:17;25.95;;;13.75;;
20073;SDS011;10197;54.282;10.078;2024-01-10T08:30:44;25.38;;;13.40;;
20073;SDS011;10197;54.282;10.078;2024-01-10T08:33:11;23.25;;;11.88;;
20073;SDS011;10197;54.282;10.078;2024-01-10T08:35:38;21.98;;;12.30;;
20073;SDS011;10197;54.282;10.078;2024-01-10T08:38:04;20.83;;;11.57;;
20073;SDS011;10197;54.282;10.078;2024-01-10T08:40:32;22.13;;;11.98;;
20073;SDS011;10197;54.282;10.078;2024-01-10T08:43:00;22.42;;;11.55;;
20073;SDS011;10197;54.282;10.078;2024-01-10T08:45:27;23.27;;;13.23;;
20073;SDS011;10197;54.282;10.078;2024-01-10T08:47:54;22.23;;;12.82;;
20073;SDS011;10197;54.282;10.078;2024-01-10T08:50:23;22.40;;;12.18;;
20073;SDS011;10197;54.282;10.078;2024-01-10T08:52:49;20.38;;;11.73;;
20073;SDS011;10197;54.282;10.078;2024-01-10T08:55:16;20.17;;;11.25;;
20073;SDS011;10197;54.282;10.078;2024-01-10T08:57:43;21.92;;;11.55;;
20073;SDS011;10197;54.282;10.078;2024-01-10T09:00:13;19.40;;;11.05;;
20073;SDS011;10197;54.282;10.078;2024-01-10T09:02:41;18.42;;;11.02;;
20073;SDS011;10197;54.282;10.078;2024-01-10T09:05:08;19.80;;;10.60;;
20073;SDS011;10197;54.282;10.078;2024-01-10T09:07:35;17.75;;;10.45;;
20073;SDS011;10197;54.282;10.078;2024-01-10T09:10:03;21.27;;;11.45;;
20073;SDS011;10197;54.282;10.078;2024-01-10T09:12:32;17.60;;;10.05;;
20073;SDS011;10197;54.282;10.078;2024-01-10T09:14:59;17.42;;;9.73;;
20073;SDS011;10197;54.282;10.078;2024-01-10T09:17:27;20.90;;;11.52;;
20073;SDS011;10197;54.282;10.078;2024-01-10T09:19:54;19.52;;;10.65;;
20073;SDS011;10197;54.282;10.078;2024-01-10T09:22:21;18.70;;;10.48;;
20073;SDS011;10197;54.282;10.078;2024-01-10T09:24:47;19.77;;;10.43;;
20073;SDS011;10197;54.282;10.078;2024-01-10T09:27:14;18.92;;;10.40;;
20073;SDS011;10197;54.282;10.078;2024-01-10T09:29:41;17.33;;;10.48;;
20073;SDS011;10197;54.282;10.078;2024-01-10T09:32:07;19.88;;;10.68;;
20073;SDS011;10197;54.282;10.078;2024-01-10T09:34:36;20.10;;;11.27;;
20073;SDS011;10197;54.282;10.078;2024-01-10T09:37:02;19.42;;;11.55;;
20073;SDS011;10197;54.282;10.078;2024-01-10T09:39:30;22.77;;;12.32;;
20073;SDS011;10197;54.282;10.078;2024-01-10T09:41:58;22.95;;;13.68;;
20073;SDS011;10197;54.282;10.078;2024-01-10T09:44:26;24.05;;;14.48;;
20073;SDS011;10197;54.282;10.078;2024-01-10T09:46:54;24.95;;;13.88;;
20073;SDS011;10197;54.282;10.078;2024-01-10T09:49:22;20.67;;;11.95;;
20073;SDS011;10197;54.282;10.078;2024-01-10T09:51:53;21.95;;;11.65;;
20073;SDS011;10197;54.282;10.078;2024-01-10T09:54:21;21.23;;;11.95;;
20073;SDS011;10197;54.282;10.078;2024-01-10T09:56:51;23.35;;;12.10;;
20073;SDS011;10197;54.282;10.078;2024-01-10T09:59:18;19.80;;;11.60;;
20073;SDS011;10197;54.282;10.078;2024-01-10T10:01:45;19.98;;;11.13;;
20073;SDS011;10197;54.282;10.078;2024-01-10T10:04:12;20.75;;;11.77;;
20073;SDS011;10197;54.282;10.078;2024-01-10T10:06:40;21.95;;;12.20;;
20073;SDS011;10197;54.282;10.078;2024-01-10T10:09:08;22.20;;;11.65;;
20073;SDS011;10197;54.282;10.078;2024-01-10T10:11:35;20.42;;;11.68;;
20073;SDS011;10197;54.282;10.078;2024-01-10T10:14:13;21.20;;;11.68;;
20073;SDS011;10197;54.282;10.078;2024-01-10T10:16:41;19.30;;;10.90;;
20073;SDS011;10197;54.282;10.078;2024-01-10T10:19:07;19.00;;;11.35;;
20073;SDS011;10197;54.282;10.078;2024-01-10T10:21:36;19.10;;;10.98;;
20073;SDS011;10197;54.282;10.078;2024-01-10T10:24:04;24.20;;;11.75;;
20073;SDS011;10197;54.282;10.078;2024-01-10T10:26:33;21.27;;;11.50;;
20073;SDS011;10197;54.282;10.078;2024-01-10T10:29:00;20.98;;;11.30;;
20073;SDS011;10197;54.282;10.078;2024-01-10T10:31:27;19.48;;;10.68;;
20073;SDS011;10197;54.282;10.078;2024-01-10T10:33:56;20.52;;;11.95;;
20073;SDS011;10197;54.282;10.078;2024-01-10T10:36:25;25.77;;;13.18;;
20073;SDS011;10197;54.282;10.078;2024-01-10T10:38:52;20.63;;;12.32;;
20073;SDS011;10197;54.282;10.078;2024-01-10T10:41:19;25.35;;;13.63;;
20073;SDS011;10197;54.282;10.078;2024-01-10T10:43:48;27.17;;;13.85;;
20073;SDS011;10197;54.282;10.078;2024-01-10T10:46:16;28.02;;;15.40;;
20073;SDS011;10197;54.282;10.078;2024-01-10T10:48:43;28.98;;;14.43;;
20073;SDS011;10197;54.282;10.078;2024-01-10T10:51:10;27.83;;;13.60;;
20073;SDS011;10197;54.282;10.078;2024-01-10T10:53:39;29.77;;;14.75;;
20073;SDS011;10197;54.282;10.078;2024-01-10T10:56:07;34.15;;;17.38;;
20073;SDS011;10197;54.282;10.078;2024-01-10T10:58:34;34.20;;;17.38;;
20073;SDS011;10197;54.282;10.078;2024-01-10T11:01:07;30.38;;;15.23;;
20073;SDS011;10197;54.282;10.078;2024-01-10T11:03:35;31.50;;;16.38;;
20073;SDS011;10197;54.282;10.078;2024-01-10T11:06:03;31.27;;;15.73;;
20073;SDS011;10197;54.282;10.078;2024-01-10T11:08:33;35.28;;;16.65;;
20073;SDS011;10197;54.282;10.078;2024-01-10T11:11:03;32.05;;;16.48;;
20073;SDS011;10197;54.282;10.078;2024-01-10T11:13:37;39.88;;;18.05;;
20073;SDS011;10197;54.282;10.078;2024-01-10T11:19:16;29.98;;;16.02;;
20073;SDS011;10197;54.282;10.078;2024-01-10T11:21:56;33.17;;;17.33;;
20073;SDS011;10197;54.282;10.078;2024-01-10T11:24:30;38.15;;;18.33;;
20073;SDS011;10197;54.282;10.078;2024-01-10T11:27:06;35.55;;;17.83;;
20073;SDS011;10197;54.282;10.078;2024-01-10T11:29:36;30.52;;;15.48;;
20073;SDS011;10197;54.282;10.078;2024-01-10T11:32:06;27.15;;;14.90;;
20073;SDS011;10197;54.282;10.078;2024-01-10T11:34:34;24.02;;;13.40;;
20073;SDS011;10197;54.282;10.078;2024-01-10T11:37:10;24.48;;;13.55;;
20073;SDS011;10197;54.282;10.078;2024-01-10T11:39:39;27.52;;;14.40;;
20073;SDS011;10197;54.282;10.078;2024-01-10T11:42:07;32.60;;;17.00;;
20073;SDS011;10197;54.282;10.078;2024-01-10T11:44:34;32.97;;;16.63;;
20073;SDS011;10197;54.282;10.078;2024-01-10T11:47:14;34.45;;;17.40;;
20073;SDS011;10197;54.282;10.078;2024-01-10T11:49:53;34.53;;;17.42;;
20073;SDS011;10197;54.282;10.078;2024-01-10T11:52:21;32.60;;;17.13;;
20073;SDS011;10197;54.282;10.078;2024-01-10T11:54:48;36.70;;;17.50;;
20073;SDS011;10197;54.282;10.078;2024-01-10T11:57:19;35.90;;;17.80;;
20073;SDS011;10197;54.282;10.078;2024-01-10T11:59:47;35.25;;;16.75;;
20073;SDS011;10197;54.282;10.078;2024-01-10T12:02:15;31.40;;;16.70;;
20073;SDS011;10197;54.282;10.078;2024-01-10T12:04:44;32.13;;;16.55;;
20073;SDS011;10197;54.282;10.078;2024-01-10T12:07:11;31.83;;;15.65;;
20073;SDS011;10197;54.282;10.078;2024-01-10T12:09:38;29.67;;;16.05;;
20073;SDS011;10197;54.282;10.078;2024-01-10T12:12:05;27.83;;;14.55;;
20073;SDS011;10197;54.282;10.078;2024-01-10T12:14:33;26.77;;;14.90;;
20073;SDS011;10197;54.282;10.078;2024-01-10T12:17:00;33.00;;;16.15;;
20073;SDS011;10197;54.282;10.078;2024-01-10T12:19:28;28.58;;;15.98;;
20073;SDS011;10197;54.282;10.078;2024-01-10T12:21:56;30.42;;;16.63;;
20073;SDS011;10197;54.282;10.078;2024-01-10T12:24:23;27.80;;;15.52;;
20073;SDS011;10197;54.282;10.078;2024-01-10T12:26:54;33.88;;;17.25;;
20073;SDS011;10197;54.282;10.078;2024-01-10T12:29:21;39.55;;;21.25;;
20073;SDS011;10197;54.282;10.078;2024-01-10T12:31:50;36.75;;;18.75;;
20073;SDS011;10197;54.282;10.078;2024-01-10T12:34:17;34.30;;;18.58;;
20073;SDS011;10197;54.282;10.078;2024-01-10T12:36:45;30.33;;;17.13;;
20073;SDS011;10197;54.282;10.078;2024-01-10T12:39:12;29.35;;;16.45;;
20073;SDS011;10197;54.282;10.078;2024-01-10T12:41:40;31.63;;;16.35;;
20073;SDS011;10197;54.282;10.078;2024-01-10T12:44:06;31.38;;;17.15;;
20073;SDS011;10197;54.282;10.078;2024-01-10T12:46:33;33.22;;;17.17;;
20073;SDS011;10197;54.282;10.078;2024-01-10T12:49:01;33.90;;;17.55;;
20073;SDS011;10197;54.282;10.078;2024-01-10T12:51:30;29.15;;;16.88;;
20073;SDS011;10197;54.282;10.078;2024-01-10T12:54:00;28.80;;;15.70;;
20073;SDS011;10197;54.282;10.078;2024-01-10T12:56:27;29.55;;;15.57;;
20073;SDS011;10197;54.282;10.078;2024-01-10T12:58:54;28.17;;;14.48;;
20073;SDS011;10197;54.282;10.078;2024-01-10T13:01:21;30.17;;;15.63;;
20073;SDS011;10197;54.282;10.078;2024-01-10T13:03:48;29.73;;;15.45;;
20073;SDS011;10197;54.282;10.078;2024-01-10T13:06:16;28.75;;;16.08;;
20073;SDS011;10197;54.282;10.078;2024-01-10T13:08:44;31.55;;;16.95;;
20073;SDS011;10197;54.282;10.078;2024-01-10T13:11:12;32.25;;;18.73;;
20073;SDS011;10197;54.282;10.078;2024-01-10T13:13:39;29.98;;;16.30;;
20073;SDS011;10197;54.282;10.078;2024-01-10T13:16:06;29.67;;;16.38;;
20073;SDS011;10197;54.282;10.078;2024-01-10T13:18:35;28.02;;;16.08;;
20073;SDS011;10197;54.282;10.078;2024-01-10T13:21:02;27.10;;;14.75;;
20073;SDS011;10197;54.282;10.078;2024-01-10T13:23:29;24.83;;;14.38;;
20073;SDS011;10197;54.282;10.078;2024-01-10T13:25:56;24.17;;;14.63;;
20073;SDS011;10197;54.282;10.078;2024-01-10T13:28:25;19.42;;;11.38;;
20073;SDS011;10197;54.282;10.078;2024-01-10T13:30:53;13.57;;;8.90;;
20073;SDS011;10197;54.282;10.078;2024-01-10T13:33:21;10.30;;;6.90;;
20073;SDS011;10197;54.282;10.078;2024-01-10T13:35:48;10.27;;;7.13;;
20073;SDS011;10197;54.282;10.078;2024-01-10T13:38:15;13.02;;;8.20;;
20073;SDS011;10197;54.282;10.078;2024-01-10T13:40:42;10.68;;;7.72;;
20073;SDS011;10197;54.282;10.078;2024-01-10T13:43:09;10.07;;;7.50;;
20073;SDS011;10197;54.282;10.078;2024-01-10T13:45:37;10.32;;;7.40;;
20073;SDS011;10197;54.282;10.078;2024-01-10T13:48:05;9.98;;;6.82;;
20073;SDS011;10197;54.282;10.078;2024-01-10T13:50:32;9.60;;;7.53;;
20073;SDS011;10197;54.282;10.078;2024-01-10T13:53:00;9.20;;;6.50;;
20073;SDS011;10197;54.282;10.078;2024-01-10T13:55:28;9.35;;;6.68;;
20073;SDS011;10197;54.282;10.078;2024-01-10T13:57:54;8.00;;;6.55;;
20073;SDS011;10197;54.282;10.078;2024-01-10T14:00:22;7.70;;;6.72;;
20073;SDS011;10197;54.282;10.078;2024-01-10T14:02:50;8.00;;;6.32;;
20073;SDS011;10197;54.282;10.078;2024-01-10T14:05:20;9.25;;;6.85;;
20073;SDS011;10197;54.282;10.078;2024-01-10T14:07:47;9.10;;;7.07;;
20073;SDS011;10197;54.282;10.078;2024-01-10T14:10:13;9.07;;;7.53;;
20073;SDS011;10197;54.282;10.078;2024-01-10T14:12:40;10.88;;;7.82;;
20073;SDS011;10197;54.282;10.078;2024-01-10T14:15:07;8.55;;;7.03;;